Time;durP1;ratioP1;P1;durP2;ratioP2;P2;SDS_P1;SDS_P2;PMS_P1;PMS_P2;Temp;Humidity;BMP_temperature;BMP_pressure;BME280_temperature;BME280_humidity;BME280_pressure;Samples;Min_cycle;Max_cycle;Signal;HPM_P1;HPM_P2
2022/07/28 00:01:12;;;;;;;6.77;2.93;;;;;;;13.77;49.64;101179.70;1637540;86;20936;-76
2022/07/28 00:03:38;;;;;;;7.77;2.53;;;;;;;13.74;49.74;101181.06;1637569;86;20905;-76
2022/07/28 00:06:04;;;;;;;6.23;2.60;;;;;;;13.72;49.77;101178.94;1645880;85;21699;-76
2022/07/28 00:08:30;;;;;;;8.13;2.42;;;;;;;13.72;49.82;101177.62;1669628;85;21346;-76
2022/07/28 00:10:56;;;;;;;3.87;2.20;;;;;;;13.68;49.88;101185.52;1658727;85;20900;-76
2022/07/28 00:13:22;;;;;;;5.93;2.20;;;;;;;13.63;49.93;101187.35;1636527;86;20900;-76
2022/07/28 00:15:48;;;;;;;8.30;2.90;;;;;;;13.60;49.96;101186.97;1637603;87;20913;-76
2022/07/28 00:18:14;;;;;;;9.40;2.42;;;;;;;13.54;49.97;101184.48;1637395;86;20976;-76
2022/07/28 00:20:40;;;;;;;12.17;2.73;;;;;;;13.45;50.04;101184.25;1632408;85;20960;-76
2022/07/28 00:23:06;;;;;;;5.90;2.03;;;;;;;13.38;50.12;101186.98;1637879;86;20983;-76
2022/07/28 00:25:32;;;;;;;7.03;2.63;;;;;;;13.33;50.22;101184.47;1638267;86;20889;-76
2022/07/28 00:27:58;;;;;;;8.30;3.60;;;;;;;13.27;50.24;101182.42;1637733;86;20881;-76
2022/07/28 00:30:24;;;;;;;7.07;2.73;;;;;;;13.25;50.33;101190.24;1637631;85;20991;-76
2022/07/28 00:32:50;;;;;;;6.40;2.77;;;;;;;13.20;50.39;101182.53;1637597;86;21645;-76
2022/07/28 00:35:16;;;;;;;8.05;3.00;;;;;;;13.14;50.48;101185.64;1637560;86;20934;-76
2022/07/28 00:37:42;;;;;;;10.53;2.52;;;;;;;13.10;50.56;101179.64;1638167;85;20936;-76
2022/07/28 00:40:10;;;;;;;5.53;2.40;;;;;;;13.04;50.61;101176.30;1637783;86;20910;-76
2022/07/28 00:42:36;;;;;;;7.87;3.12;;;;;;;12.98;50.71;101178.59;1647763;85;21429;-76
2022/07/28 00:45:03;;;;;;;6.12;2.62;;;;;;;12.96;50.78;101176.45;1631404;87;20933;-76
2022/07/28 00:47:29;;;;;;;6.22;2.25;;;;;;;12.92;50.76;101175.66;1637533;86;28779;-76
2022/07/28 00:49:55;;;;;;;11.28;2.45;;;;;;;12.87;50.83;101179.20;1637338;85;20944;-76
2022/07/28 00:52:22;;;;;;;5.97;2.33;;;;;;;12.81;50.91;101178.86;1637462;86;20972;-76
2022/07/28 00:54:48;;;;;;;4.10;2.35;;;;;;;12.75;50.98;101181.99;1636709;86;21410;-76
2022/07/28 00:57:14;;;;;;;8.60;2.37;;;;;;;12.63;50.83;101165.31;1636934;85;21078;-76
2022/07/28 00:59:40;;;;;;;5.97;2.30;;;;;;;12.69;51.06;101180.79;1637317;86;21021;-76
2022/07/28 01:02:06;;;;;;;7.10;2.77;;;;;;;12.60;51.11;101181.34;1637564;86;20912;-76
2022/07/28 01:04:33;;;;;;;5.15;2.40;;;;;;;12.56;51.22;101186.60;1632004;85;20945;-76
2022/07/28 01:07:28;;;;;;;4.83;2.10;;;;;;;12.51;51.27;101189.27;1637241;87;20932;-76
2022/07/28 01:10:14;;;;;;;10.00;2.12;;;;;;;12.46;51.30;101185.05;1637201;85;20976;-76
2022/07/28 01:12:53;;;;;;;;;;;;;;;12.39;51.33;101185.58;1649943;86;20936;-76
2022/07/28 01:15:36;;;;;;;7.58;2.77;;;;;;;12.35;51.83;101180.46;1642354;86;20097;-76
2022/07/28 01:18:25;;;;;;;6.72;2.55;;;;;;;12.29;51.42;101181.84;1610266;86;21037;-76
2022/07/28 01:21:02;;;;;;;7.45;3.75;;;;;;;12.26;51.54;101181.45;1634087;87;21433;-76
2022/07/28 01:23:48;;;;;;;7.58;2.65;;;;;;;12.17;51.64;101184.16;1633951;87;20977;-76
2022/07/28 01:26:32;;;;;;;7.33;2.35;;;;;;;12.13;51.77;101185.94;1634057;87;21532;-76
2022/07/28 01:29:25;;;;;;;10.18;2.45;;;;;;;12.08;51.82;101177.80;1644613;86;20889;-76
2022/07/28 01:32:02;;;;;;;4.45;2.45;;;;;;;12.04;51.88;101189.94;1642097;87;21386;-76
2022/07/28 01:34:43;;;;;;;9.10;2.40;;;;;;;12.00;51.90;101193.45;1634125;87;21428;-76
2022/07/28 01:37:15;;;;;;;8.45;2.15;;;;;;;11.95;52.00;101191.38;1633999;86;21442;-76
2022/07/28 01:39:44;;;;;;;9.68;2.52;;;;;;;11.90;52.05;101193.17;1633303;87;20968;-76
2022/07/28 01:42:12;;;;;;;10.88;2.72;;;;;;;11.86;52.16;101194.94;1636282;86;20981;-76
2022/07/28 01:44:44;;;;;;;6.87;2.22;;;;;;;11.81;52.24;101194.58;1635813;86;20987;-76
2022/07/28 01:47:11;;;;;;;6.62;2.45;;;;;;;11.83;52.30;101201.89;1634256;86;20929;-76
2022/07/28 01:49:37;;;;;;;4.95;2.22;;;;;;;11.81;52.30;101199.76;1617445;87;20992;-76
2022/07/28 01:52:07;;;;;;;8.03;2.67;;;;;;;11.78;52.34;101198.50;1634329;87;21421;-76
2022/07/28 01:54:36;;;;;;;5.15;2.52;;;;;;;11.74;52.44;101193.75;1628505;85;20908;-76
2022/07/28 01:57:04;;;;;;;5.80;2.60;;;;;;;11.70;52.51;101185.59;1632133;87;20969;-76
2022/07/28 01:59:32;;;;;;;6.58;2.40;;;;;;;11.67;52.60;101184.77;1633898;87;20909;-76
2022/07/28 02:02:00;;;;;;;4.53;2.17;;;;;;;11.65;52.67;101186.09;1645181;86;20968;-76
2022/07/28 02:04:27;;;;;;;5.17;2.00;;;;;;;11.65;52.72;101183.50;1635052;86;21432;-76
2022/07/28 02:06:56;;;;;;;10.00;2.77;;;;;;;11.60;52.72;101188.73;1634162;86;21373;-76
2022/07/28 02:09:23;;;;;;;4.55;1.80;;;;;;;11.53;52.78;101193.55;1633019;86;21420;-76
2022/07/28 02:11:52;;;;;;;7.30;2.40;;;;;;;11.45;52.82;101188.03;1627723;86;20961;-76
2022/07/28 02:14:23;;;;;;;13.80;2.50;;;;;;;11.41;52.96;101187.67;1652519;86;21422;-76
2022/07/28 02:16:54;;;;;;;4.70;2.30;;;;;;;11.38;53.02;101184.67;1634502;86;21397;-76
2022/07/28 02:19:21;;;;;;;5.17;2.47;;;;;;;11.37;53.13;101185.55;1632924;87;20896;-76
2022/07/28 02:21:49;;;;;;;5.97;3.12;;;;;;;11.28;53.08;101192.97;1632353;86;20890;-76
2022/07/28 02:24:20;;;;;;;3.40;1.95;;;;;;;11.26;53.22;101192.13;1584999;90;21485;-76
2022/07/28 02:26:50;;;;;;;7.55;2.12;;;;;;;11.27;53.35;101191.25;1634111;87;21387;-76
2022/07/28 02:29:21;;;;;;;5.55;2.27;;;;;;;11.32;53.37;101192.50;1637661;86;21599;-76
2022/07/28 02:31:58;;;;;;;4.12;2.00;;;;;;;11.31;53.41;101188.20;1634282;86;21458;-76
2022/07/28 02:34:25;;;;;;;3.55;1.98;;;;;;;11.29;53.39;101186.06;1608384;87;20907;-76
2022/07/28 02:37:00;;;;;;;6.00;1.72;;;;;;;11.24;53.48;101187.40;1617628;86;21417;-76
2022/07/28 02:39:43;;;;;;;4.10;2.30;;;;;;;11.17;53.50;101196.09;1627975;86;20961;-76
2022/07/28 02:42:21;;;;;;;5.90;1.98;;;;;;;11.08;53.52;101198.76;1641616;86;21390;-76
2022/07/28 02:44:57;;;;;;;4.35;2.00;;;;;;;11.01;53.62;101198.83;1609185;87;21468;-76
2022/07/28 02:47:27;;;;;;;4.92;2.42;;;;;;;10.95;53.75;101195.84;1594196;87;21420;-76
2022/07/28 02:49:56;;;;;;;6.35;2.30;;;;;;;10.96;53.85;101200.16;1618456;86;21472;-76
2022/07/28 02:52:24;;;;;;;8.23;2.40;;;;;;;10.94;53.89;101197.58;1648739;86;20960;-76
2022/07/28 02:54:51;;;;;;;4.70;1.98;;;;;;;10.92;54.03;101199.32;1645860;86;20956;-76
2022/07/28 02:57:19;;;;;;;5.62;2.00;;;;;;;10.93;54.07;101206.64;1662159;86;21801;-76
2022/07/28 02:59:46;;;;;;;5.80;2.00;;;;;;;10.92;54.08;101216.58;1636335;86;21489;-76
2022/07/28 03:02:13;;;;;;;5.00;2.10;;;;;;;10.95;54.08;101217.84;1662666;86;21010;-76
2022/07/28 03:04:58;;;;;;;6.72;2.10;;;;;;;10.91;54.11;101218.77;1641411;86;26898;-76
2022/07/28 03:07:29;;;;;;;2.87;2.15;;;;;;;10.87;54.21;101215.78;1635717;86;21417;-76
2022/07/28 03:09:55;;;;;;;7.35;2.08;;;;;;;10.84;54.22;101217.09;1637720;86;20939;-76
2022/07/28 03:12:22;;;;;;;9.58;2.55;;;;;;;10.84;54.31;101219.69;1621729;87;21454;-76
2022/07/28 03:14:48;;;;;;;8.85;2.37;;;;;;;10.86;54.38;101220.09;1609068;89;21569;-76
2022/07/28 03:17:14;;;;;;;5.35;2.17;;;;;;;10.89;54.36;101227.84;1612020;87;21613;-76
2022/07/28 03:19:40;;;;;;;4.62;2.75;;;;;;;10.88;54.42;101223.53;1642322;87;20940;-76
2022/07/28 03:22:07;;;;;;;7.03;1.60;;;;;;;10.87;54.43;101228.28;1650359;85;20955;-76
2022/07/28 03:24:37;;;;;;;3.90;1.87;;;;;;;10.84;54.47;101232.63;1642452;85;21559;-76
2022/07/28 03:27:31;;;;;;;5.95;1.80;;;;;;;10.81;54.53;101227.47;1618888;87;21456;-76
2022/07/28 03:30:09;;;;;;;3.33;1.70;;;;;;;10.79;54.55;101233.95;1642099;87;21442;-76
2022/07/28 03:32:49;;;;;;;2.87;1.42;;;;;;;10.79;54.63;101236.53;1612173;87;21455;-76
2022/07/28 03:35:17;;;;;;;4.33;1.92;;;;;;;10.75;54.60;101236.13;1634543;85;21424;-77
2022/07/28 03:38:07;;;;;;;6.17;1.65;;;;;;;10.69;54.62;101237.46;1642065;87;20944;-76
2022/07/28 03:40:36;;;;;;;5.42;2.00;;;;;;;10.64;54.80;101239.66;1641963;87;21330;-76
2022/07/28 03:43:06;;;;;;;3.85;2.02;;;;;;;10.63;54.91;101248.28;1618487;87;21547;-75
2022/07/28 03:45:32;;;;;;;5.08;1.80;;;;;;;10.67;54.98;101251.27;1617961;87;21624;-75
2022/07/28 03:47:58;;;;;;;6.47;2.27;;;;;;;10.71;54.99;101254.27;1621725;88;21121;-75
2022/07/28 03:50:30;;;;;;;3.83;2.40;;;;;;;10.71;55.05;101263.31;1618312;88;21126;-75
2022/07/28 03:52:57;;;;;;;4.22;2.25;;;;;;;10.73;55.10;101259.85;1621486;87;21144;-76
2022/07/28 03:55:25;;;;;;;5.25;2.12;;;;;;;10.78;55.13;101263.70;1642133;87;21790;-76
2022/07/28 03:57:51;;;;;;;;;;;;;;;10.80;55.20;101258.95;1642525;85;21436;-76
2022/07/28 04:00:19;;;;;;;7.62;2.52;;;;;;;10.84;55.64;101263.67;1641712;87;20142;-76
2022/07/28 04:02:46;;;;;;;4.45;2.25;;;;;;;10.88;55.33;101263.63;1637268;85;21135;-76
2022/07/28 04:05:14;;;;;;;8.75;2.30;;;;;;;10.92;55.34;101262.71;1645080;86;21046;-76
2022/07/28 04:07:41;;;;;;;4.95;2.42;;;;;;;10.93;55.43;101262.28;1641814;85;20975;-76
2022/07/28 04:10:11;;;;;;;8.98;2.22;;;;;;;10.94;55.45;101258.82;1636767;87;20965;-76
2022/07/28 04:12:55;;;;;;;4.03;2.25;;;;;;;10.92;55.51;101261.42;1619658;88;20976;-76
2022/07/28 04:15:24;;;;;;;6.37;2.22;;;;;;;10.97;55.59;101265.27;1622412;87;20969;-76
2022/07/28 04:17:55;;;;;;;10.48;2.77;;;;;;;11.02;55.69;101266.09;1637732;87;21489;-76
2022/07/28 04:20:24;;;;;;;4.72;2.62;;;;;;;11.09;55.78;101264.32;1634268;87;20992;-76
2022/07/28 04:22:51;;;;;;;6.08;2.30;;;;;;;11.14;55.84;101275.50;1626586;86;20930;-76
2022/07/28 04:25:21;;;;;;;5.72;2.58;;;;;;;11.16;55.92;101272.03;1634140;87;21047;-76
2022/07/28 04:27:47;;;;;;;7.15;3.00;;;;;;;11.24;56.03;101275.85;1634265;87;20961;-76
2022/07/28 04:30:16;;;;;;;4.80;2.27;;;;;;;11.26;56.10;101277.55;1617887;87;20901;-76
2022/07/28 04:32:48;;;;;;;4.17;2.08;;;;;;;11.33;56.25;101275.78;1633493;86;20913;-76
2022/07/28 04:35:16;;;;;;;5.53;2.50;;;;;;;11.43;56.31;101277.86;1627903;86;20893;-76
2022/07/28 04:37:45;;;;;;;3.62;2.33;;;;;;;11.51;56.39;101285.09;1616946;87;34526;-76
2022/07/28 04:40:12;;;;;;;7.40;2.35;;;;;;;11.57;56.47;101282.44;1627800;86;20937;-76
2022/07/28 04:42:39;;;;;;;8.83;3.05;;;;;;;11.64;56.54;101280.22;1633361;86;20956;-76
2022/07/28 04:45:08;;;;;;;9.68;3.08;;;;;;;11.70;56.58;101289.66;1629618;86;20981;-76
2022/07/28 04:47:35;;;;;;;7.33;2.30;;;;;;;11.76;56.67;101287.01;1633918;87;20949;-76
2022/07/28 04:50:01;;;;;;;6.65;2.60;;;;;;;11.82;56.75;101283.95;1633992;86;20889;-76
2022/07/28 04:52:28;;;;;;;8.48;2.40;;;;;;;11.86;56.82;101289.52;1633736;86;20962;-76
2022/07/28 04:54:54;;;;;;;10.80;2.50;;;;;;;11.93;56.90;101287.30;1627085;86;20882;-76
2022/07/28 04:57:20;;;;;;;14.87;4.30;;;;;;;12.02;57.02;101283.71;1635115;86;20944;-76
2022/07/28 04:59:46;;;;;;;15.77;5.77;;;;;;;12.11;57.05;101282.75;1633586;86;21048;-76
2022/07/28 05:02:12;;;;;;;24.67;8.90;;;;;;;12.21;57.17;101283.06;1642055;86;21532;-76
2022/07/28 05:04:38;;;;;;;30.03;9.77;;;;;;;12.33;57.24;101283.35;1635755;86;117575;-76
2022/07/28 05:07:05;;;;;;;17.00;7.08;;;;;;;12.46;57.32;101281.89;1640270;86;21446;-76
2022/07/28 05:09:32;;;;;;;20.90;6.83;;;;;;;12.61;57.36;101287.28;1627658;86;21568;-76
2022/07/28 05:11:58;;;;;;;21.23;6.62;;;;;;;12.72;57.42;101285.40;1640496;86;20929;-76
2022/07/28 05:14:25;;;;;;;15.43;5.03;;;;;;;12.87;57.53;101292.11;1634101;86;21368;-76
2022/07/28 05:16:51;;;;;;;;;;;;;;;13.04;57.56;101289.23;1635417;87;21793;-76
2022/07/28 05:19:17;;;;;;;7.45;2.60;;;;;;;13.28;58.17;101286.28;1635594;87;21108;-76
2022/07/28 05:21:44;;;;;;;9.05;2.55;;;;;;;13.58;57.78;101282.28;1633777;86;21093;-76
2022/07/28 05:24:12;;;;;;;5.97;2.00;;;;;;;14.04;57.76;101287.46;1635676;86;20885;-76
2022/07/28 05:26:38;;;;;;;5.20;1.90;;;;;;;14.63;57.78;101290.59;1633594;86;21525;-76
2022/07/28 05:29:05;;;;;;;5.33;1.75;;;;;;;15.30;57.81;101289.45;1634999;87;21147;-76
2022/07/28 05:31:31;;;;;;;4.87;1.67;;;;;;;15.99;57.78;101289.83;1636553;86;21563;-76
2022/07/28 05:33:57;;;;;;;4.00;1.60;;;;;;;16.71;57.64;101288.12;1605179;88;21567;-76
2022/07/28 05:36:24;;;;;;;3.62;2.08;;;;;;;17.36;57.56;101290.37;1613888;86;21098;-76
2022/07/28 05:38:50;;;;;;;7.30;2.47;;;;;;;18.04;57.33;101287.59;1635165;86;21511;-77
2022/07/28 05:41:17;;;;;;;7.72;1.80;;;;;;;18.60;57.18;101286.80;1634816;86;21120;-77
2022/07/28 05:43:43;;;;;;;1.93;1.30;;;;;;;19.15;56.93;101297.70;1607605;87;21659;-77
2022/07/28 05:46:09;;;;;;;5.80;1.60;;;;;;;19.61;56.75;101293.17;1634891;86;21121;-77
2022/07/28 05:48:35;;;;;;;5.33;1.77;;;;;;;20.08;56.56;101290.62;1635772;86;21076;-77
2022/07/28 05:51:01;;;;;;;5.93;2.20;;;;;;;20.57;56.38;101286.22;1635675;86;21118;-77
2022/07/28 05:53:28;;;;;;;8.43;1.95;;;;;;;21.02;56.11;101298.47;1635110;86;21119;-77
2022/07/28 05:55:54;;;;;;;7.58;1.87;;;;;;;21.42;55.74;101301.30;1639634;86;21131;-77
2022/07/28 05:58:22;;;;;;;7.00;1.77;;;;;;;21.74;55.47;101306.72;1639614;86;21089;-77
2022/07/28 06:00:48;;;;;;;5.42;1.70;;;;;;;22.07;55.31;101306.75;1635001;86;21160;-77
2022/07/28 06:03:14;;;;;;;7.60;1.77;;;;;;;22.43;54.89;101309.18;1636902;86;21086;-77
2022/07/28 06:05:40;;;;;;;4.83;1.60;;;;;;;22.68;54.71;101312.64;1632791;86;21806;-77
2022/07/28 06:08:07;;;;;;;9.30;1.93;;;;;;;22.97;54.44;101307.06;1631071;86;20981;-79
2022/07/28 06:13:18;;;;;;;6.10;1.60;;;;;;;23.36;53.98;101314.49;1633246;86;21079;-79
2022/07/28 06:15:48;;;;;;;6.65;1.65;;;;;;;23.47;53.74;101309.41;1633867;86;21099;-79
2022/07/28 06:18:15;;;;;;;3.08;1.47;;;;;;;24.04;53.25;101316.12;1634147;86;21088;-79
2022/07/28 06:20:41;;;;;;;5.70;1.52;;;;;;;24.04;53.25;101316.12;1635395;85;21545;-79
2022/07/28 06:23:07;;;;;;;4.95;1.75;;;;;;;24.38;52.97;101316.25;1640999;85;20928;-79
2022/07/28 06:25:33;;;;;;;4.80;1.30;;;;;;;24.71;52.59;101323.34;1635431;85;20988;-79
2022/07/28 06:28:03;;;;;;;3.03;1.30;;;;;;;24.98;52.34;101316.76;1640266;85;21737;-79
2022/07/28 06:30:31;;;;;;;2.92;1.55;;;;;;;25.23;51.98;101323.09;1638685;85;20920;-79
2022/07/28 06:32:57;;;;;;;4.45;1.62;;;;;;;25.49;51.69;101323.51;1633153;85;20994;-79
2022/07/28 06:35:24;;;;;;;2.72;1.02;;;;;;;25.82;51.40;101323.06;1611980;87;20974;-79
2022/07/28 06:37:51;;;;;;;2.67;1.40;;;;;;;26.18;51.08;101326.27;1584618;88;21020;-79
2022/07/28 06:40:19;;;;;;;5.00;1.60;;;;;;;26.47;50.71;101322.06;1638573;85;21029;-79
2022/07/28 06:42:46;;;;;;;2.40;1.45;;;;;;;26.67;50.29;101317.48;1635786;85;20950;-79
2022/07/28 06:45:13;;;;;;;;;;;;;;;26.86;49.87;101315.66;1637530;85;21512;-79
2022/07/28 06:47:39;;;;;;;7.03;1.52;;;;;;;27.01;49.13;101315.91;1633825;85;20128;-79
2022/07/28 06:50:07;;;;;;;4.40;1.57;;;;;;;27.20;49.37;101322.00;1644457;85;20965;-79
2022/07/28 06:52:34;;;;;;;4.60;1.50;;;;;;;27.40;48.80;101325.81;1641446;85;21016;-79
2022/07/28 06:55:00;;;;;;;6.00;2.02;;;;;;;27.55;48.36;101316.21;1637365;85;21159;-79
2022/07/28 06:57:27;;;;;;;5.28;1.32;;;;;;;27.75;47.88;101321.81;1622572;87;21055;-79
2022/07/28 06:59:54;;;;;;;2.77;1.32;;;;;;;27.81;47.36;101334.16;1639890;85;21005;-79
2022/07/28 07:02:20;;;;;;;4.95;1.10;;;;;;;27.90;47.09;101327.28;1639408;85;20910;-79
2022/07/28 07:04:46;;;;;;;4.45;1.32;;;;;;;27.94;46.59;101328.25;1643310;85;20968;-79
2022/07/28 07:07:16;;;;;;;7.42;1.30;;;;;;;27.92;46.30;101327.53;1640667;85;20976;-79
2022/07/28 07:09:43;;;;;;;;;;;;;;;28.22;45.95;101330.09;1640098;85;20905;-79
2022/07/28 07:12:10;;;;;;;2.72;1.15;;;;;;;28.56;45.55;101318.95;1639477;85;20103;-81
2022/07/28 07:14:36;;;;;;;3.10;1.27;;;;;;;28.67;44.96;101323.74;1632311;85;25166;-80
2022/07/28 07:17:02;;;;;;;6.97;1.60;;;;;;;28.87;44.91;101322.64;1640244;85;20969;-80
2022/07/28 07:19:28;;;;;;;2.08;1.27;;;;;;;29.20;44.63;101322.98;1641295;85;20986;-79
2022/07/28 07:21:55;;;;;;;5.58;1.30;;;;;;;29.54;44.14;101321.89;1648089;85;20955;-79
2022/07/28 07:24:21;;;;;;;4.28;1.30;;;;;;;29.95;43.80;101325.48;1654218;85;20928;-79
2022/07/28 07:26:47;;;;;;;3.90;1.82;;;;;;;30.34;43.45;101322.99;1650677;85;28059;-79
2022/07/28 07:29:13;;;;;;;2.95;1.65;;;;;;;30.45;42.66;101321.55;1629882;85;20914;-79
2022/07/28 07:31:40;;;;;;;2.42;1.07;;;;;;;30.55;42.35;101319.27;1640426;85;20942;-79
2022/07/28 07:34:06;;;;;;;4.87;1.10;;;;;;;30.73;41.68;101322.62;1643183;85;21030;-79
2022/07/28 07:36:32;;;;;;;3.98;1.32;;;;;;;30.38;41.41;101297.72;1645690;85;20935;-79
2022/07/28 07:38:58;;;;;;;3.22;1.37;;;;;;;30.27;41.05;101326.20;1644773;85;20987;-80
2022/07/28 07:41:25;;;;;;;2.40;1.07;;;;;;;30.28;40.35;101327.05;1657914;85;20940;-80
2022/07/28 07:43:51;;;;;;;2.77;1.00;;;;;;;30.26;40.05;101327.66;1645619;85;21506;-78
2022/07/28 07:46:17;;;;;;;3.80;1.47;;;;;;;30.29;39.77;101327.40;1651040;85;21001;-79
2022/07/28 07:48:43;;;;;;;2.52;1.20;;;;;;;30.28;39.50;101327.89;1632302;85;21452;-79
2022/07/28 07:51:10;;;;;;;;;;;;;;;30.38;38.92;101327.92;1648608;85;20932;-79
2022/07/28 07:53:36;;;;;;;4.30;1.00;;;;;;;30.20;38.35;101326.38;1647522;85;20107;-79
2022/07/28 07:56:02;;;;;;;9.55;1.30;;;;;;;29.44;38.31;101328.97;1637995;85;20944;-79
2022/07/28 07:58:28;;;;;;;3.50;1.20;;;;;;;28.88;38.02;101331.84;1640650;85;21382;-79
2022/07/28 08:00:55;;;;;;;2.27;1.05;;;;;;;28.38;38.01;101329.25;1641924;85;21338;-79
2022/07/28 08:03:21;;;;;;;2.60;1.20;;;;;;;28.49;37.79;101323.07;1618831;86;20941;-79
2022/07/28 08:05:48;;;;;;;3.58;1.37;;;;;;;28.49;37.34;101319.92;1643834;85;20921;-79
2022/07/28 08:08:14;;;;;;;;;;;;;;;28.33;37.04;101322.95;1656024;85;21023;-79
2022/07/28 08:10:40;;;;;;;4.40;1.32;;;;;;;28.05;37.08;101329.23;1638241;85;20111;-79
2022/07/28 08:13:07;;;;;;;;;;;;;;;27.64;36.79;101322.64;1649051;85;20984;-79
2022/07/28 08:15:34;;;;;;;1.95;1.00;;;;;;;27.30;36.60;101329.64;1652773;85;20137;-79
2022/07/28 08:18:00;;;;;;;;;;;;;;;26.91;36.58;101323.66;1644469;85;20996;-79
2022/07/28 08:20:27;;;;;;;2.55;0.95;;;;;;;26.60;36.62;101328.16;1621102;87;20112;-79
2022/07/28 08:22:55;;;;;;;4.00;1.10;;;;;;;26.72;36.64;101327.28;1620602;87;20947;-79
2022/07/28 08:25:22;;;;;;;7.40;1.60;;;;;;;27.25;36.47;101329.98;1633436;86;20959;-79
2022/07/28 08:27:48;;;;;;;5.22;1.35;;;;;;;27.84;36.07;101327.27;1613288;87;21821;-79
2022/07/28 08:30:15;;;;;;;3.95;1.35;;;;;;;27.78;35.71;101337.53;1641506;86;20949;-79
2022/07/28 08:32:42;;;;;;;3.95;1.22;;;;;;;27.37;35.45;101337.52;1622574;86;21374;-80
2022/07/28 08:35:08;;;;;;;1.52;0.85;;;;;;;26.76;35.54;101338.52;1642297;86;20981;-80
2022/07/28 08:37:35;;;;;;;6.85;1.57;;;;;;;26.32;35.55;101337.26;1640229;86;21478;-76
2022/07/28 08:40:02;;;;;;;6.47;1.60;;;;;;;26.03;35.61;101335.28;1633320;86;26902;-77
2022/07/28 08:42:49;;;;;;;5.58;1.35;;;;;;;25.83;35.59;101338.48;1641253;86;20969;-77
2022/07/28 08:45:17;;;;;;;4.15;1.30;;;;;;;26.03;35.69;101336.13;1635788;86;20924;-78
2022/07/28 08:47:44;;;;;;;7.37;1.42;;;;;;;26.55;35.71;101327.64;1633533;86;21433;-78
2022/07/28 08:50:13;;;;;;;;;;;;;;;26.68;35.57;101328.45;1636945;86;21013;-78
2022/07/28 08:52:42;;;;;;;5.15;1.77;;;;;;;26.66;35.16;101332.55;1638730;86;20505;-78
2022/07/28 08:55:09;;;;;;;3.25;1.35;;;;;;;26.22;35.21;101328.22;1641877;86;20960;-79
2022/07/28 08:57:40;;;;;;;3.92;1.10;;;;;;;25.80;35.32;101323.64;1635229;86;21269;-78
2022/07/28 09:00:15;;;;;;;2.50;1.10;;;;;;;25.49;35.20;101328.80;1629791;86;20901;-78
2022/07/28 09:02:44;;;;;;;3.08;1.32;;;;;;;25.40;35.12;101336.06;1637080;86;21022;-78
2022/07/28 09:05:11;;;;;;;6.17;1.10;;;;;;;25.29;35.09;101328.83;1641959;86;20924;-78
2022/07/28 09:07:40;;;;;;;;;;;;;;;25.11;35.08;101328.72;1645696;86;21715;-78
2022/07/28 09:10:13;;;;;;;5.87;1.20;;;;;;;24.96;35.03;101327.91;1642994;86;20599;-77
2022/07/28 09:12:39;;;;;;;4.55;1.10;;;;;;;24.83;35.13;101327.48;1637651;86;20965;-78
2022/07/28 09:15:08;;;;;;;4.80;1.50;;;;;;;24.75;35.02;101326.17;1635631;86;20913;-78
2022/07/28 09:17:35;;;;;;;5.15;1.30;;;;;;;24.62;35.04;101319.97;1637289;86;21036;-79
2022/07/28 09:20:03;;;;;;;1.20;0.82;;;;;;;24.61;35.02;101332.81;1646660;85;20972;-78
2022/07/28 09:22:35;;;;;;;4.97;1.20;;;;;;;24.52;34.86;101324.60;1620615;87;20920;-78
2022/07/28 09:25:02;;;;;;;2.98;1.10;;;;;;;24.28;34.86;101325.22;1610680;87;21507;-78
2022/07/28 09:27:44;;;;;;;2.98;1.00;;;;;;;24.25;34.90;101328.48;1611932;87;21828;-78
2022/07/28 09:30:11;;;;;;;5.15;1.40;;;;;;;24.03;34.54;101326.31;1587433;89;21960;-78
2022/07/28 09:32:38;;;;;;;3.40;1.00;;;;;;;24.03;34.54;101326.31;1639999;85;20897;-78
2022/07/28 09:35:17;;;;;;;4.87;1.17;;;;;;;23.83;34.75;101322.73;1640070;85;21415;-77
2022/07/28 09:37:44;;;;;;;4.47;1.10;;;;;;;23.69;34.89;101318.27;1637784;85;20965;-77
2022/07/28 09:40:12;;;;;;;2.05;1.30;;;;;;;23.69;34.97;101322.23;1643357;85;20925;-77
2022/07/28 09:42:48;;;;;;;2.22;1.02;;;;;;;23.74;35.02;101323.66;1639067;85;20967;-77
2022/07/28 09:45:15;;;;;;;6.08;1.52;;;;;;;23.77;34.98;101316.02;1642560;86;21003;-77
2022/07/28 09:47:41;;;;;;;3.50;1.27;;;;;;;23.80;35.01;101329.52;1645690;85;20928;-77
2022/07/28 09:50:11;;;;;;;3.55;1.17;;;;;;;23.81;35.04;101321.97;1648449;85;20909;-77
2022/07/28 09:52:37;;;;;;;3.90;1.30;;;;;;;23.80;35.03;101322.91;1651883;85;20948;-77
2022/07/28 09:55:10;;;;;;;2.75;0.85;;;;;;;23.78;35.04;101323.00;1651251;85;20972;-77
2022/07/28 09:57:39;;;;;;;4.15;1.17;;;;;;;23.78;35.02;101324.32;1648033;85;21580;-77
2022/07/28 10:00:10;;;;;;;2.75;1.07;;;;;;;23.72;34.99;101322.05;1650900;85;20918;-77
2022/07/28 10:02:37;;;;;;;5.12;1.35;;;;;;;23.62;35.01;101321.74;1644565;85;21562;-77
2022/07/28 10:05:04;;;;;;;4.83;0.85;;;;;;;23.54;35.03;101316.53;1652622;85;23530;-77
2022/07/28 10:07:31;;;;;;;2.25;1.37;;;;;;;23.49;35.00;101306.67;1649276;85;20934;-77
2022/07/28 10:10:06;;;;;;;;;;;;;;;23.34;35.00;101312.41;1657280;85;20964;-77
2022/07/28 10:12:35;;;;;;;3.65;1.17;;;;;;;23.25;35.10;101309.84;1645145;85;20111;-75
2022/07/28 10:17:59;;;;;;;5.78;1.10;;;;;;;23.11;35.09;101307.13;1649319;85;20958;-79
2022/07/28 10:20:28;;;;;;;3.45;1.00;;;;;;;22.98;35.11;101298.22;1657849;85;20968;-79
2022/07/28 10:22:58;;;;;;;;;;;;;;;22.92;35.11;101298.56;1645828;85;20944;-78
2022/07/28 10:25:26;;;;;;;3.45;1.15;;;;;;;22.83;35.18;101303.92;1642114;85;20188;-78
2022/07/28 10:27:53;;;;;;;2.67;0.95;;;;;;;22.74;35.21;101304.40;1653427;85;20940;-78
2022/07/28 10:30:19;;;;;;;2.65;1.00;;;;;;;22.78;35.29;101296.70;1641691;86;21371;-78
2022/07/28 10:32:45;;;;;;;3.25;1.20;;;;;;;22.91;35.37;101299.03;1641186;86;20964;-78
2022/07/28 10:35:16;;;;;;;3.83;1.07;;;;;;;23.03;35.35;101304.08;1641226;85;20966;-78
2022/07/28 10:38:02;;;;;;;5.25;1.37;;;;;;;23.02;35.27;101299.28;1640211;85;21358;-78
2022/07/28 10:40:35;;;;;;;3.22;1.27;;;;;;;22.94;35.33;101292.27;1640289;86;21567;-78
2022/07/28 10:43:02;;;;;;;2.98;1.05;;;;;;;22.97;35.40;101285.97;1646421;85;20990;-78
2022/07/28 10:45:28;;;;;;;8.68;1.15;;;;;;;22.98;35.40;101288.98;1601515;86;20988;-78
2022/07/28 10:47:55;;;;;;;6.72;1.25;;;;;;;22.93;35.43;101286.61;1619941;86;21429;-77
2022/07/28 10:50:22;;;;;;;2.83;1.25;;;;;;;22.93;35.51;101287.92;1618633;86;20981;-78
2022/07/28 10:52:48;;;;;;;1.80;1.02;;;;;;;22.93;35.52;101280.48;1618217;87;20984;-78
2022/07/28 10:55:52;;;;;;;2.35;1.10;;;;;;;22.80;35.33;101260.58;1622402;86;20930;-78
2022/07/28 10:58:29;;;;;;;7.30;0.90;;;;;;;22.80;35.33;101260.58;1614001;86;20938;-78
2022/07/28 11:00:55;;;;;;;2.35;0.90;;;;;;;22.89;35.55;101275.00;1644229;85;21304;-78
2022/07/28 11:03:46;;;;;;;2.83;0.90;;;;;;;22.95;35.59;101276.82;1624190;86;21464;-78
2022/07/28 11:06:34;;;;;;;2.77;1.67;;;;;;;23.06;35.63;101278.84;1644478;86;20925;-78
2022/07/28 11:09:20;;;;;;;2.35;1.07;;;;;;;23.11;35.50;101278.12;1641382;85;20964;-78
2022/07/28 11:11:50;;;;;;;6.72;1.07;;;;;;;23.01;35.55;101280.43;1619414;87;20947;-78
2022/07/28 11:14:32;;;;;;;1.80;1.00;;;;;;;23.03;35.66;101285.62;1592075;88;21434;-78
2022/07/28 11:17:09;;;;;;;3.60;1.02;;;;;;;23.08;35.66;101283.09;1618219;86;21449;-78
2022/07/28 11:19:50;;;;;;;2.58;0.85;;;;;;;23.17;35.64;101284.36;1621183;87;21436;-78
2022/07/28 11:22:20;;;;;;;3.25;0.93;;;;;;;23.25;35.63;101283.91;1637936;85;21497;-78
2022/07/28 11:25:01;;;;;;;4.15;1.12;;;;;;;23.30;35.57;101277.90;1617046;87;21650;-79
2022/07/28 11:27:45;;;;;;;2.08;0.88;;;;;;;23.30;35.58;101275.27;1580430;89;21551;-78
2022/07/28 11:30:35;;;;;;;1.37;1.00;;;;;;;23.34;35.63;101276.31;1642584;85;21455;-78
2022/07/28 11:33:03;;;;;;;4.90;1.62;;;;;;;23.38;35.64;101284.43;1641785;85;21555;-79
2022/07/28 11:35:31;;;;;;;9.43;1.35;;;;;;;23.44;35.73;101279.23;1639221;85;21373;-78
2022/07/28 11:38:06;;;;;;;5.72;1.22;;;;;;;23.51;35.66;101286.31;1638145;85;21592;-78
2022/07/28 11:40:43;;;;;;;8.43;1.67;;;;;;;23.55;35.64;101282.59;1656101;85;21436;-78
2022/07/28 11:43:28;;;;;;;2.43;1.00;;;;;;;23.66;35.72;101279.69;1646397;85;21441;-78